createdAt,value
2023-09-02T00:01:45.792Z,16.97
2023-09-02T00:04:13.635Z,16.94
2023-09-02T00:06:42.803Z,16.94
2023-09-02T00:09:10.607Z,16.94
2023-09-02T00:11:38.400Z,16.94
2023-09-02T00:14:06.286Z,16.94
2023-09-02T00:16:34.088Z,16.93
2023-09-02T00:19:03.390Z,16.91
2023-09-02T00:21:31.140Z,16.88
2023-09-02T00:24:06.546Z,16.88
2023-09-02T00:26:35.324Z,16.84
2023-09-02T00:29:03.424Z,16.84
2023-09-02T00:31:31.814Z,16.82
2023-09-02T00:33:59.602Z,16.81
2023-09-02T00:36:27.718Z,16.79
2023-09-02T00:38:55.550Z,16.76
2023-09-02T00:41:29.315Z,16.72
2023-09-02T00:43:57.917Z,16.68
2023-09-02T00:46:26.408Z,16.69
2023-09-02T00:48:55.260Z,16.67
2023-09-02T00:51:23.018Z,16.64
2023-09-02T00:53:50.718Z,16.62
2023-09-02T00:56:19.347Z,16.60
2023-09-02T00:58:48.492Z,16.59
2023-09-02T01:01:16.707Z,16.57
2023-09-02T01:03:45.426Z,16.55
2023-09-02T01:06:13.558Z,16.53
2023-09-02T01:08:41.392Z,16.49
2023-09-02T01:11:09.188Z,16.47
2023-09-02T01:13:36.925Z,16.45
2023-09-02T01:16:06.874Z,16.43
2023-09-02T01:18:36.970Z,16.41
2023-09-02T01:21:34.366Z,16.40
2023-09-02T01:24:31.451Z,16.35
2023-09-02T01:27:17.812Z,16.34
2023-09-02T01:29:54.217Z,16.31
2023-09-02T01:32:23.490Z,16.30
2023-09-02T01:34:52.106Z,16.28
2023-09-02T01:37:22.118Z,16.25
2023-09-02T01:39:52.221Z,16.23
2023-09-02T01:42:21.814Z,16.24
2023-09-02T01:44:50.086Z,16.24
2023-09-02T01:47:18.218Z,16.22
2023-09-02T01:49:47.783Z,16.21
2023-09-02T01:52:17.307Z,16.18
2023-09-02T01:54:45.876Z,16.20
2023-09-02T01:57:13.882Z,16.18
2023-09-02T01:59:44.089Z,16.17
2023-09-02T02:02:11.884Z,16.16
2023-09-02T02:04:44.488Z,16.15
2023-09-02T02:07:15.755Z,16.15
2023-09-02T02:09:49.150Z,16.15
2023-09-02T02:12:17.175Z,16.19
2023-09-02T02:14:47.140Z,16.18
2023-09-02T02:17:15.712Z,16.20
2023-09-02T02:19:45.239Z,16.19
2023-09-02T02:22:13.094Z,16.20
2023-09-02T02:24:40.874Z,16.20
2023-09-02T02:27:08.675Z,16.21
2023-09-02T02:29:36.467Z,16.22
2023-09-02T02:32:06.005Z,16.24
2023-09-02T02:34:34.097Z,16.26
2023-09-02T02:37:01.941Z,16.27
2023-09-02T02:39:29.748Z,16.28
2023-09-02T02:41:57.521Z,16.28
2023-09-02T02:44:25.304Z,16.29
2023-09-02T02:46:53.052Z,16.31
2023-09-02T02:49:22.154Z,16.31
2023-09-02T02:51:49.915Z,16.31
2023-09-02T02:54:17.940Z,16.32
2023-09-02T02:56:45.673Z,16.33
2023-09-02T02:59:13.464Z,16.33
2023-09-02T03:01:41.254Z,16.34
2023-09-02T03:04:10.081Z,16.33
2023-09-02T03:06:39.164Z,16.33
2023-09-02T03:09:07.239Z,16.33
2023-09-02T03:11:35.006Z,16.31
2023-09-02T03:14:02.784Z,16.31
2023-09-02T03:16:30.542Z,16.31
2023-09-02T03:18:58.294Z,16.27
2023-09-02T03:21:26.089Z,16.27
2023-09-02T03:23:55.185Z,16.26
2023-09-02T03:26:25.367Z,16.26
2023-09-02T03:28:54.461Z,16.22
2023-09-02T03:31:22.314Z,16.19
2023-09-02T03:33:50.137Z,16.26
2023-09-02T03:36:19.080Z,16.27
2023-09-02T03:38:46.904Z,16.27
2023-09-02T03:41:18.456Z,16.31
2023-09-02T03:43:46.966Z,16.30
2023-09-02T03:46:15.720Z,16.27
2023-09-02T03:48:43.518Z,16.25
2023-09-02T03:51:13.926Z,16.21
2023-09-02T03:53:42.768Z,16.22
2023-09-02T03:56:10.920Z,16.16
2023-09-02T03:58:40.688Z,16.12
2023-09-02T04:01:08.458Z,16.10
2023-09-02T04:03:37.434Z,16.13
2023-09-02T04:06:05.779Z,16.15
2023-09-02T04:08:35.279Z,16.14
2023-09-02T04:11:04.063Z,16.17
2023-09-02T04:13:32.397Z,16.19
2023-09-02T04:16:03.677Z,16.19
2023-09-02T04:18:32.553Z,16.23
2023-09-02T04:21:01.706Z,16.24
2023-09-02T04:23:29.455Z,16.24
2023-09-02T04:25:58.978Z,16.22
2023-09-02T04:28:26.764Z,16.23
2023-09-02T04:30:57.222Z,16.23
2023-09-02T04:33:26.573Z,16.19
2023-09-02T04:35:54.821Z,16.18
2023-09-02T04:38:22.678Z,16.11
2023-09-02T04:40:50.414Z,16.07
2023-09-02T04:43:19.560Z,16.07
2023-09-02T04:45:47.857Z,16.09
2023-09-02T04:48:16.990Z,16.07
2023-09-02T04:50:53.832Z,15.99
2023-09-02T04:53:21.855Z,15.98
2023-09-02T04:55:49.836Z,15.96
2023-09-02T04:58:17.954Z,15.96
2023-09-02T05:00:45.780Z,15.94
2023-09-02T05:03:13.542Z,15.90
2023-09-02T05:05:42.492Z,15.84
2023-09-02T05:08:11.648Z,15.83
2023-09-02T05:10:39.391Z,15.78
2023-09-02T05:13:07.154Z,15.76
2023-09-02T05:15:35.145Z,15.76
2023-09-02T05:18:03.058Z,15.70
2023-09-02T05:20:30.805Z,15.69
2023-09-02T05:22:58.565Z,15.69
2023-09-02T05:25:29.615Z,15.74
2023-09-02T05:27:57.349Z,15.71
2023-09-02T05:30:25.440Z,15.70
2023-09-02T05:32:53.232Z,15.64
2023-09-02T05:35:21.024Z,15.63
2023-09-02T05:37:48.783Z,15.64
2023-09-02T05:40:16.741Z,15.65
2023-09-02T05:42:45.846Z,15.67
2023-09-02T05:45:13.958Z,15.68
2023-09-02T05:47:41.699Z,15.62
2023-09-02T05:50:10.098Z,15.63
2023-09-02T05:52:37.875Z,15.64
2023-09-02T05:55:06.693Z,15.60
2023-09-02T05:57:34.627Z,15.53
2023-09-02T06:00:04.567Z,15.49
2023-09-02T06:02:34.530Z,15.51
2023-09-02T06:05:03.160Z,15.53
2023-09-02T06:07:30.938Z,15.52
2023-09-02T06:09:58.854Z,15.57
2023-09-02T06:12:26.618Z,15.58
2023-09-02T06:14:56.585Z,15.57
2023-09-02T06:17:31.717Z,15.56
2023-09-02T06:20:00.225Z,15.57
2023-09-02T06:22:28.159Z,15.61
2023-09-02T06:24:56.459Z,15.61
2023-09-02T06:27:24.482Z,15.61
2023-09-02T06:29:52.289Z,15.58
2023-09-02T06:32:20.049Z,15.50
2023-09-02T06:34:49.178Z,15.50
2023-09-02T06:37:16.994Z,15.46
2023-09-02T06:39:44.778Z,15.46
2023-09-02T06:42:12.730Z,15.49
2023-09-02T06:44:40.518Z,15.49
2023-09-02T06:47:08.252Z,15.53
2023-09-02T06:49:36.079Z,15.59
2023-09-02T06:52:05.606Z,15.58
2023-09-02T06:54:33.353Z,15.63
2023-09-02T06:57:01.111Z,15.66
2023-09-02T06:59:28.925Z,15.69
2023-09-02T07:01:56.706Z,15.71
2023-09-02T07:04:24.484Z,15.78
2023-09-02T07:06:52.255Z,15.81
2023-09-02T07:09:21.382Z,15.82
2023-09-02T07:11:49.213Z,15.90
2023-09-02T07:14:17.032Z,15.85
2023-09-02T07:16:44.789Z,15.87
2023-09-02T07:19:12.556Z,15.87
2023-09-02T07:21:40.343Z,15.92
2023-09-02T07:24:08.211Z,15.92
2023-09-02T07:26:37.571Z,15.91
2023-09-02T07:29:05.542Z,15.96
2023-09-02T07:31:33.395Z,15.98
2023-09-02T07:34:01.276Z,16.02
2023-09-02T07:36:28.074Z,16.07
2023-09-02T07:38:55.852Z,16.11
2023-09-02T07:41:23.617Z,16.11
2023-09-02T07:43:52.774Z,16.13
2023-09-02T07:46:20.678Z,16.17
2023-09-02T07:48:50.558Z,16.19
2023-09-02T07:51:18.463Z,16.26
2023-09-02T07:53:46.256Z,16.31
2023-09-02T07:56:14.058Z,16.32
2023-09-02T07:58:43.550Z,16.33
2023-09-02T08:01:12.734Z,16.39
2023-09-02T08:03:40.552Z,16.32
2023-09-02T08:06:09.782Z,16.31
2023-09-02T08:08:37.658Z,16.38
2023-09-02T08:11:05.724Z,16.42
2023-09-02T08:13:34.149Z,16.46
2023-09-02T08:16:05.580Z,16.52
2023-09-02T08:18:35.766Z,16.60
2023-09-02T08:21:03.654Z,16.65
2023-09-02T08:23:31.460Z,16.66
2023-09-02T08:25:59.223Z,16.65
2023-09-02T08:28:26.988Z,16.62
2023-09-02T08:30:54.801Z,16.65
2023-09-02T08:33:22.568Z,16.74
2023-09-02T08:35:51.653Z,16.75
2023-09-02T08:38:19.418Z,16.81
2023-09-02T08:40:47.901Z,16.81
2023-09-02T08:43:16.332Z,16.86
2023-09-02T08:45:47.520Z,16.84
2023-09-02T08:48:26.520Z,16.92
2023-09-02T08:50:57.387Z,17.00
2023-09-02T08:53:27.531Z,17.05
2023-09-02T08:55:56.438Z,17.10
2023-09-02T08:58:25.253Z,17.10
2023-09-02T09:00:53.972Z,17.15
2023-09-02T09:03:22.147Z,17.20
2023-09-02T09:05:52.122Z,17.25
2023-09-02T09:08:22.406Z,17.33
2023-09-02T09:10:51.067Z,17.37
2023-09-02T09:13:20.198Z,17.39
2023-09-02T09:15:49.029Z,17.45
2023-09-02T09:18:17.786Z,17.51
2023-09-02T09:20:46.100Z,17.49
2023-09-02T09:23:13.992Z,17.49
2023-09-02T09:25:45.979Z,17.52
2023-09-02T09:28:14.949Z,17.47
2023-09-02T09:30:43.416Z,17.44
2023-09-02T09:33:11.285Z,17.39
2023-09-02T09:35:39.271Z,17.42
2023-09-02T09:38:07.192Z,17.45
2023-09-02T09:40:36.466Z,17.53
2023-09-02T09:43:16.685Z,17.60
2023-09-02T09:45:51.292Z,17.63
2023-09-02T09:48:19.247Z,17.66
2023-09-02T09:50:47.068Z,17.71
2023-09-02T09:53:14.808Z,17.68
2023-09-02T09:55:42.724Z,17.73
2023-09-02T09:58:11.881Z,17.81
2023-09-02T10:00:40.037Z,17.88
2023-09-02T10:03:07.945Z,17.93
2023-09-02T10:05:36.087Z,18.01
2023-09-02T10:08:05.900Z,18.08
2023-09-02T10:10:37.289Z,18.18
2023-09-02T10:13:06.324Z,18.25
2023-09-02T10:15:35.644Z,18.35
2023-09-02T10:18:05.654Z,18.47
2023-09-02T10:20:36.325Z,18.60
2023-09-02T10:23:07.578Z,18.69
2023-09-02T10:25:45.275Z,18.82
2023-09-02T10:28:17.752Z,18.80
2023-09-02T10:30:49.824Z,18.90
2023-09-02T10:33:25.874Z,19.05
2023-09-02T10:36:00.697Z,19.20
2023-09-02T10:38:31.504Z,19.34
2023-09-02T10:41:09.421Z,19.46
2023-09-02T10:43:37.790Z,19.44
2023-09-02T10:46:07.373Z,19.30
2023-09-02T10:48:36.078Z,19.29
2023-09-02T10:51:04.939Z,19.26
2023-09-02T10:54:02.945Z,19.28
2023-09-02T10:56:33.117Z,19.29
2023-09-02T10:59:02.220Z,19.29
2023-09-02T11:01:43.904Z,19.33
2023-09-02T11:04:11.702Z,19.33
2023-09-02T11:06:39.606Z,19.33
2023-09-02T11:09:13.423Z,19.29
2023-09-02T11:12:12.184Z,19.34
2023-09-02T11:14:40.028Z,19.29
2023-09-02T11:17:32.006Z,19.35
2023-09-02T11:20:01.723Z,19.39
2023-09-02T11:22:48.513Z,19.51
2023-09-02T11:25:27.318Z,19.68
2023-09-02T11:27:56.626Z,19.79
2023-09-02T11:30:25.037Z,19.80
2023-09-02T11:32:55.846Z,19.78
2023-09-02T11:35:29.721Z,19.87
2023-09-02T11:37:57.510Z,19.89
2023-09-02T11:40:29.307Z,19.90
2023-09-02T11:43:00.955Z,19.76
2023-09-02T11:45:31.578Z,19.75
2023-09-02T11:48:01.109Z,19.77
2023-09-02T11:50:29.259Z,19.77
2023-09-02T11:52:58.588Z,19.77
2023-09-02T11:55:27.276Z,19.85
2023-09-02T11:57:55.104Z,19.97
2023-09-02T12:00:24.438Z,19.94
2023-09-02T12:02:54.562Z,19.87
2023-09-02T12:05:26.155Z,19.94
2023-09-02T12:07:55.706Z,20.00
2023-09-02T12:10:27.238Z,19.95
2023-09-02T12:12:55.283Z,20.12
2023-09-02T12:15:23.056Z,20.14
2023-09-02T12:17:51.154Z,20.25
2023-09-02T12:20:19.464Z,20.35
2023-09-02T12:22:48.714Z,20.41
2023-09-02T12:25:18.955Z,20.43
2023-09-02T12:27:46.888Z,20.55
2023-09-02T12:30:15.346Z,20.65
2023-09-02T12:32:46.706Z,20.74
2023-09-02T12:35:15.337Z,20.82
2023-09-02T12:37:43.299Z,20.91
2023-09-02T12:40:14.250Z,21.05
2023-09-02T12:42:42.782Z,21.16
2023-09-02T12:45:11.281Z,21.12
2023-09-02T12:47:42.672Z,21.24
2023-09-02T12:50:11.590Z,21.26
2023-09-02T12:52:39.533Z,21.27
2023-09-02T12:55:08.566Z,21.36
2023-09-02T12:57:38.286Z,21.42
2023-09-02T13:00:07.919Z,21.53
2023-09-02T13:02:40.085Z,21.64
2023-09-02T13:05:08.340Z,21.74
2023-09-02T13:07:36.136Z,21.84
2023-09-02T13:10:04.648Z,22.03
2023-09-02T13:12:34.392Z,22.12
2023-09-02T13:15:04.025Z,22.13
2023-09-02T13:17:31.856Z,21.86
2023-09-02T13:19:59.807Z,21.85
2023-09-02T13:22:27.732Z,22.08
2023-09-02T13:24:55.808Z,22.18
2023-09-02T13:27:26.773Z,22.15
2023-09-02T13:29:54.721Z,22.10
2023-09-02T13:32:26.349Z,22.04
2023-09-02T13:34:56.642Z,21.98
2023-09-02T13:37:28.670Z,22.02
2023-09-02T13:39:58.729Z,22.04
2023-09-02T13:42:27.589Z,22.08
2023-09-02T13:45:09.189Z,22.31
2023-09-02T13:47:38.480Z,22.32
2023-09-02T13:50:11.682Z,22.54
2023-09-02T13:52:39.879Z,22.63
2023-09-02T13:55:08.390Z,22.81
2023-09-02T13:57:36.254Z,22.94
2023-09-02T14:00:11.995Z,22.98
2023-09-02T14:02:42.261Z,22.68
2023-09-02T14:05:15.484Z,22.48
2023-09-02T14:07:45.440Z,22.34
2023-09-02T14:10:14.274Z,22.41
2023-09-02T14:12:42.059Z,22.39
2023-09-02T14:15:10.249Z,22.14
2023-09-02T14:17:38.045Z,22.22
2023-09-02T14:20:08.343Z,22.27
2023-09-02T14:22:36.113Z,22.07
2023-09-02T14:25:04.011Z,22.11
2023-09-02T14:27:31.849Z,22.18
2023-09-02T14:29:59.582Z,22.32
2023-09-02T14:32:27.381Z,22.53
2023-09-02T14:34:55.146Z,22.72
2023-09-02T14:37:24.278Z,22.88
2023-09-02T14:39:52.018Z,23.04
2023-09-02T14:42:19.740Z,23.12
2023-09-02T14:44:47.574Z,23.13
2023-09-02T14:47:15.385Z,23.10
2023-09-02T14:49:43.197Z,23.00
2023-09-02T14:52:10.947Z,22.64
2023-09-02T14:54:47.292Z,22.70
2023-09-02T14:57:16.577Z,22.75
2023-09-02T14:59:47.221Z,22.68
2023-09-02T15:02:21.764Z,22.73
2023-09-02T15:04:50.451Z,22.78
2023-09-02T15:07:18.302Z,22.73
2023-09-02T15:09:48.450Z,22.70
2023-09-02T15:12:17.310Z,22.71
2023-09-02T15:14:50.600Z,22.51
2023-09-02T15:17:19.580Z,22.46
2023-09-02T15:19:50.545Z,22.52
2023-09-02T15:22:20.132Z,22.67
2023-09-02T15:24:49.617Z,22.69
2023-09-02T15:27:24.959Z,22.71
2023-09-02T15:29:53.053Z,22.53
2023-09-02T15:32:20.912Z,22.42
2023-09-02T15:34:50.222Z,22.48
2023-09-02T15:37:22.672Z,22.52
2023-09-02T15:39:55.318Z,22.57
2023-09-02T15:42:23.580Z,22.66
2023-09-02T15:44:51.355Z,22.68
2023-09-02T15:47:19.091Z,22.80
2023-09-02T15:49:46.870Z,22.88
2023-09-02T15:52:14.687Z,22.90
2023-09-02T15:54:42.459Z,22.81
2023-09-02T15:57:12.699Z,22.82
2023-09-02T15:59:40.513Z,22.70
2023-09-02T16:02:08.566Z,22.72
2023-09-02T16:04:36.384Z,22.66
2023-09-02T16:07:04.214Z,22.63
2023-09-02T16:09:32.023Z,22.52
2023-09-02T16:11:59.901Z,22.56
2023-09-02T16:14:29.150Z,22.62
2023-09-02T16:17:01.638Z,22.44
2023-09-02T16:19:29.440Z,22.51
2023-09-02T16:21:57.193Z,22.49
2023-09-02T16:24:23.966Z,22.46
2023-09-02T16:26:51.714Z,22.44
2023-09-02T16:29:19.468Z,22.40
2023-09-02T16:31:48.630Z,22.42
2023-09-02T16:34:16.546Z,22.44
2023-09-02T16:36:44.313Z,22.20
2023-09-02T16:39:12.540Z,22.21
2023-09-02T16:41:44.518Z,22.23
2023-09-02T16:44:13.662Z,22.14
2023-09-02T16:46:41.743Z,22.17
2023-09-02T16:49:16.221Z,22.11
2023-09-02T16:51:44.169Z,22.06
2023-09-02T16:54:12.657Z,22.07
2023-09-02T16:56:40.456Z,21.99
2023-09-02T16:59:08.925Z,21.99
2023-09-02T17:01:41.127Z,21.98
2023-09-02T17:04:09.046Z,21.99
2023-09-02T17:06:39.274Z,21.81
2023-09-02T17:09:07.104Z,21.97
2023-09-02T17:11:35.165Z,21.92
2023-09-02T17:14:04.387Z,21.98
2023-09-02T17:16:32.213Z,22.01
2023-09-02T17:19:01.449Z,22.06
2023-09-02T17:21:29.267Z,22.05
2023-09-02T17:23:58.893Z,22.08
2023-09-02T17:26:26.809Z,22.05
2023-09-02T17:28:54.663Z,21.98
2023-09-02T17:31:23.763Z,22.06
2023-09-02T17:33:51.621Z,22.05
2023-09-02T17:36:19.482Z,22.01
2023-09-02T17:38:47.380Z,21.97
2023-09-02T17:41:16.657Z,21.83
2023-09-02T17:43:44.783Z,21.70
2023-09-02T17:46:12.696Z,21.66
2023-09-02T17:48:40.810Z,21.62
2023-09-02T17:51:08.652Z,21.60
2023-09-02T17:53:36.441Z,21.52
2023-09-02T17:56:04.339Z,21.45
2023-09-02T17:58:33.626Z,21.35
2023-09-02T18:01:01.485Z,21.30
2023-09-02T18:03:29.819Z,21.29
2023-09-02T18:05:57.751Z,21.24
2023-09-02T18:08:34.301Z,21.19
2023-09-02T18:11:09.690Z,21.09
2023-09-02T18:13:38.870Z,21.04
2023-09-02T18:16:06.892Z,21.04
2023-09-02T18:18:35.092Z,21.03
2023-09-02T18:21:02.884Z,20.93
2023-09-02T18:23:30.748Z,20.76
2023-09-02T18:25:58.555Z,20.67
2023-09-02T18:28:26.458Z,20.49
2023-09-02T18:30:55.657Z,20.58
2023-09-02T18:33:23.509Z,20.63
2023-09-02T18:35:51.481Z,20.57
2023-09-02T18:38:19.563Z,20.55
2023-09-02T18:40:47.567Z,20.61
2023-09-02T18:43:15.408Z,20.60
2023-09-02T18:45:43.204Z,20.56
2023-09-02T18:48:12.367Z,20.43
2023-09-02T18:50:43.052Z,20.26
2023-09-02T18:53:11.208Z,20.14
2023-09-02T18:55:38.987Z,20.08
2023-09-02T18:58:08.264Z,20.00
2023-09-02T19:00:37.438Z,19.93
2023-09-02T19:03:05.970Z,19.79
2023-09-02T19:05:35.497Z,19.69
2023-09-02T19:08:03.272Z,19.55
2023-09-02T19:10:31.139Z,19.47
2023-09-02T19:12:58.958Z,19.39
2023-09-02T19:15:26.879Z,19.34
2023-09-02T19:17:54.744Z,19.29
2023-09-02T19:20:22.589Z,19.28
2023-09-02T19:22:51.876Z,19.24
2023-09-02T19:25:20.516Z,19.16
2023-09-02T19:27:49.320Z,19.13
2023-09-02T19:30:17.116Z,19.09
2023-09-02T19:32:44.964Z,19.00
2023-09-02T19:35:13.953Z,18.83
2023-09-02T19:37:45.511Z,18.71
2023-09-02T19:40:15.814Z,18.69
2023-09-02T19:42:47.987Z,18.61
2023-09-02T19:45:16.123Z,18.53
2023-09-02T19:47:44.010Z,18.49
2023-09-02T19:50:12.443Z,18.48
2023-09-02T19:52:40.281Z,18.46
2023-09-02T19:55:08.983Z,18.42
2023-09-02T19:57:38.068Z,18.40
2023-09-02T20:00:08.031Z,18.33
2023-09-02T20:02:35.789Z,18.30
2023-09-02T20:05:03.595Z,18.24
2023-09-02T20:07:31.342Z,18.18
2023-09-02T20:09:59.233Z,18.14
2023-09-02T20:12:30.447Z,18.11
2023-09-02T20:14:59.784Z,18.07
2023-09-02T20:17:27.514Z,18.06
2023-09-02T20:19:55.279Z,18.03
2023-09-02T20:22:23.015Z,18.00
2023-09-02T20:24:50.755Z,17.97
2023-09-02T20:27:19.816Z,17.96
2023-09-02T20:29:47.653Z,17.95
2023-09-02T20:32:16.806Z,17.94
2023-09-02T20:34:44.603Z,17.89
2023-09-02T20:37:13.731Z,17.79
2023-09-02T20:39:42.401Z,17.75
2023-09-02T20:42:10.294Z,17.74
2023-09-02T20:44:38.352Z,17.73
2023-09-02T20:47:06.382Z,17.74
2023-09-02T20:49:35.551Z,17.73
2023-09-02T20:52:07.332Z,17.71
2023-09-02T20:54:35.132Z,17.67
2023-09-02T20:57:02.896Z,17.65
2023-09-02T20:59:30.657Z,17.63
2023-09-02T21:01:58.425Z,17.59
2023-09-02T21:04:26.238Z,17.54
2023-09-02T21:06:55.425Z,17.48
2023-09-02T21:09:23.190Z,17.44
2023-09-02T21:11:51.069Z,17.40
2023-09-02T21:14:18.931Z,17.38
2023-09-02T21:16:46.775Z,17.33
2023-09-02T21:19:14.592Z,17.35
2023-09-02T21:21:43.672Z,17.32
2023-09-02T21:24:14.167Z,17.26
2023-09-02T21:26:42.433Z,17.24
2023-09-02T21:29:10.258Z,17.22
2023-09-02T21:31:38.067Z,17.17
2023-09-02T21:34:05.940Z,17.14
2023-09-02T21:36:33.833Z,17.10
2023-09-02T21:39:01.568Z,17.07
2023-09-02T21:41:30.743Z,16.99
2023-09-02T21:44:01.090Z,17.02
2023-09-02T21:46:28.884Z,17.00
2023-09-02T21:48:56.982Z,16.96
2023-09-02T21:51:24.748Z,16.93
2023-09-02T21:53:57.111Z,16.90
2023-09-02T21:56:24.999Z,16.84
2023-09-02T21:58:54.212Z,16.83
2023-09-02T22:01:22.113Z,16.78
2023-09-02T22:03:50.041Z,16.74
2023-09-02T22:06:17.938Z,16.71
2023-09-02T22:08:47.653Z,16.65
2023-09-02T22:11:17.223Z,16.61
2023-09-02T22:13:45.579Z,16.51
2023-09-02T22:16:15.844Z,16.50
2023-09-02T22:18:56.191Z,16.44
2023-09-02T22:21:28.102Z,16.37
2023-09-02T22:23:55.933Z,16.27
2023-09-02T22:26:23.689Z,16.25
2023-09-02T22:28:51.551Z,16.14
2023-09-02T22:31:20.732Z,16.07
2023-09-02T22:33:48.564Z,16.02
2023-09-02T22:36:17.044Z,15.94
2023-09-02T22:41:16.289Z,15.90
2023-09-02T22:43:44.100Z,15.87
2023-09-02T22:46:13.428Z,15.84
2023-09-02T22:48:42.954Z,15.75
2023-09-02T22:51:10.851Z,15.78
2023-09-02T22:53:40.004Z,15.77
2023-09-02T22:56:12.295Z,15.77
2023-09-02T22:58:40.114Z,15.77
2023-09-02T23:01:10.631Z,15.78
2023-09-02T23:03:38.489Z,15.77
2023-09-02T23:06:11.010Z,15.77
2023-09-02T23:08:39.175Z,15.74
2023-09-02T23:11:07.014Z,15.73
2023-09-02T23:13:34.827Z,15.73
2023-09-02T23:16:04.576Z,15.73
2023-09-02T23:18:32.897Z,15.73
2023-09-02T23:21:11.312Z,15.72
2023-09-02T23:23:39.597Z,15.71
2023-09-02T23:26:07.549Z,15.71
2023-09-02T23:28:35.910Z,15.71
2023-09-02T23:31:03.941Z,15.71
2023-09-02T23:33:33.626Z,15.69
2023-09-02T23:36:03.662Z,15.60
2023-09-02T23:38:33.500Z,15.55
2023-09-02T23:41:01.325Z,15.48
2023-09-02T23:43:29.280Z,15.47
2023-09-02T23:45:57.180Z,15.45
2023-09-02T23:48:25.219Z,15.42
2023-09-02T23:50:53.273Z,15.38
2023-09-02T23:53:21.069Z,15.38
2023-09-02T23:55:50.277Z,15.35
2023-09-02T23:58:18.486Z,15.31
